createdAt,value
2018-02-14T00:00:08.905Z,75.59
2018-02-14T00:01:08.821Z,75.31
2018-02-14T00:02:08.768Z,75.59
2018-02-14T00:03:08.714Z,75.59
2018-02-14T00:04:08.661Z,75.59
2018-02-14T00:05:08.607Z,75.59
2018-02-14T00:06:08.553Z,75.40
2018-02-14T00:07:08.500Z,75.68
2018-02-14T00:08:08.446Z,75.40
2018-02-14T00:09:08.392Z,75.49
2018-02-14T00:10:08.339Z,75.49
2018-02-14T00:11:08.285Z,75.40
2018-02-14T00:12:08.232Z,75.21
2018-02-14T00:13:08.178Z,75.49
2018-02-14T00:14:08.124Z,75.59
2018-02-14T00:15:08.071Z,75.40
2018-02-14T00:16:08.019Z,75.78
2018-02-14T00:17:07.964Z,75.40
2018-02-14T00:18:07.910Z,75.31
2018-02-14T00:19:07.857Z,75.40
2018-02-14T00:20:07.803Z,75.49
2018-02-14T00:21:07.750Z,75.87
2018-02-14T00:22:07.696Z,75.96
2018-02-14T00:23:07.642Z,75.96
2018-02-14T00:24:07.589Z,75.96
2018-02-14T00:25:07.538Z,75.78
2018-02-14T00:26:07.484Z,75.96
2018-02-14T00:27:07.428Z,75.12
2018-02-14T00:28:07.375Z,75.87
2018-02-14T00:29:07.323Z,75.78
2018-02-14T00:30:07.267Z,75.78
2018-02-14T00:31:07.217Z,75.49
2018-02-14T00:32:07.162Z,75.49
2018-02-14T00:33:07.105Z,75.68
2018-02-14T00:34:07.052Z,76.06
2018-02-14T00:35:06.999Z,75.21
2018-02-14T00:36:06.945Z,75.68
2018-02-14T00:37:06.891Z,75.87
2018-02-14T00:38:06.838Z,75.59
2018-02-14T00:39:06.784Z,75.49
2018-02-14T00:40:06.731Z,75.40
2018-02-14T00:41:06.676Z,75.49
2018-02-14T00:42:06.624Z,75.40
2018-02-14T00:43:06.570Z,75.40
2018-02-14T00:44:06.517Z,75.55
2018-02-14T00:45:06.462Z,75.49
2018-02-14T00:46:06.408Z,75.68
2018-02-14T00:47:06.355Z,75.68
2018-02-14T00:48:06.302Z,75.68
2018-02-14T00:49:06.248Z,75.96
2018-02-14T00:50:06.194Z,76.06
2018-02-14T00:51:06.141Z,75.68
2018-02-14T00:52:06.087Z,75.78
2018-02-14T00:53:06.033Z,75.78
2018-02-14T00:54:05.979Z,75.78
2018-02-14T00:55:05.926Z,75.68
2018-02-14T00:56:05.872Z,75.78
2018-02-14T00:57:05.818Z,75.68
2018-02-14T00:58:05.814Z,75.68
2018-02-14T00:59:05.711Z,75.59
2018-02-14T01:00:05.657Z,75.59
2018-02-14T01:01:05.604Z,75.59
2018-02-14T01:02:05.550Z,75.59
2018-02-14T01:03:05.496Z,75.49
2018-02-14T01:04:05.444Z,75.59
2018-02-14T01:05:05.389Z,75.64
2018-02-14T01:06:05.335Z,75.74
2018-02-14T01:07:05.282Z,75.64
2018-02-14T01:08:05.228Z,75.93
2018-02-14T01:09:05.173Z,75.93
2018-02-14T01:10:05.120Z,76.50
2018-02-14T01:11:05.067Z,76.31
2018-02-14T01:12:05.016Z,76.40
2018-02-14T01:13:04.958Z,76.68
2018-02-14T01:14:04.905Z,76.21
2018-02-14T01:15:04.851Z,76.50
2018-02-14T01:16:04.800Z,76.50
2018-02-14T01:17:04.743Z,76.59
2018-02-14T01:18:04.690Z,76.21
2018-02-14T01:19:04.636Z,76.31
2018-02-14T01:20:04.583Z,76.31
2018-02-14T01:21:04.528Z,76.31
2018-02-14T01:22:04.474Z,76.40
2018-02-14T01:23:04.422Z,76.21
2018-02-14T01:24:04.368Z,76.21
2018-02-14T01:25:04.313Z,76.40
2018-02-14T01:26:04.259Z,76.12
2018-02-14T01:27:04.206Z,76.25
2018-02-14T01:28:04.153Z,76.02
2018-02-14T01:29:04.098Z,76.21
2018-02-14T01:30:04.044Z,76.12
2018-02-14T01:31:03.991Z,76.21
2018-02-14T01:32:03.938Z,76.31
2018-02-14T01:33:03.883Z,76.02
2018-02-14T01:34:03.830Z,76.40
2018-02-14T01:35:03.777Z,76.40
2018-02-14T01:36:03.723Z,76.40
2018-02-14T01:37:03.669Z,76.59
2018-02-14T01:38:03.615Z,76.12
2018-02-14T01:39:03.562Z,76.21
2018-02-14T01:40:03.508Z,76.02
2018-02-14T01:41:03.504Z,76.12
2018-02-14T01:42:03.400Z,76.68
2018-02-14T01:43:03.347Z,76.12
2018-02-14T01:44:03.294Z,76.02
2018-02-14T01:45:03.240Z,76.06
2018-02-14T01:46:03.187Z,76.50
2018-02-14T01:47:03.132Z,76.59
2018-02-14T01:48:03.079Z,76.59
2018-02-14T01:49:03.025Z,76.31
2018-02-14T01:50:02.971Z,76.50
2018-02-14T01:51:02.918Z,76.31
2018-02-14T01:52:02.864Z,76.68
2018-02-14T01:53:02.810Z,76.68
2018-02-14T01:54:02.757Z,76.78
2018-02-14T01:55:02.703Z,76.34
2018-02-14T01:56:02.650Z,76.78
2018-02-14T01:57:02.595Z,76.82
2018-02-14T01:58:02.542Z,76.68
2018-02-14T01:59:02.489Z,76.72
2018-02-14T02:00:02.435Z,76.82
2018-02-14T02:01:02.381Z,76.53
2018-02-14T02:02:02.327Z,76.72
2018-02-14T02:03:02.274Z,76.82
2018-02-14T02:04:02.221Z,76.82
2018-02-14T02:05:02.216Z,76.72
2018-02-14T02:06:02.113Z,76.44
2018-02-14T02:07:02.060Z,76.59
2018-02-14T02:08:02.008Z,76.68
2018-02-14T02:09:01.952Z,76.59
2018-02-14T02:10:01.946Z,76.59
2018-02-14T02:11:01.845Z,76.78
2018-02-14T02:12:01.793Z,76.82
2018-02-14T02:13:01.738Z,76.78
2018-02-14T02:14:01.684Z,76.68
2018-02-14T02:15:01.631Z,76.87
2018-02-14T02:16:01.578Z,77.06
2018-02-14T02:17:01.523Z,76.97
2018-02-14T02:18:01.470Z,76.78
2018-02-14T02:19:01.417Z,76.87
2018-02-14T02:20:01.364Z,76.50
2018-02-14T02:21:01.312Z,76.78
2018-02-14T02:22:01.257Z,76.68
2018-02-14T02:23:01.202Z,76.68
2018-02-14T02:24:01.149Z,76.78
2018-02-14T02:25:01.094Z,76.78
2018-02-14T02:26:01.040Z,76.97
2018-02-14T02:27:00.987Z,76.87
2018-02-14T02:28:00.933Z,76.87
2018-02-14T02:29:00.879Z,76.87
2018-02-14T02:30:00.832Z,76.97
2018-02-14T02:31:00.774Z,77.25
2018-02-14T02:32:00.720Z,77.06
2018-02-14T02:33:00.670Z,76.97
2018-02-14T02:34:00.610Z,77.34
2018-02-14T02:35:00.558Z,77.15
2018-02-14T02:36:00.504Z,77.15
2018-02-14T02:37:00.450Z,77.15
2018-02-14T02:38:00.395Z,77.44
2018-02-14T02:39:00.342Z,77.44
2018-02-14T02:40:00.290Z,77.53
2018-02-14T02:41:00.234Z,77.63
2018-02-14T02:42:00.182Z,77.44
2018-02-14T02:43:00.128Z,77.63
2018-02-14T02:44:00.075Z,77.34
2018-02-14T02:45:00.039Z,77.63
2018-02-14T02:45:59.965Z,77.34
2018-02-14T02:46:59.912Z,77.34
2018-02-14T02:47:59.858Z,77.34
2018-02-14T02:48:59.803Z,77.34
2018-02-14T02:49:59.750Z,77.34
2018-02-14T02:50:59.697Z,77.34
2018-02-14T02:51:59.643Z,77.34
2018-02-14T02:52:59.589Z,77.72
2018-02-14T02:53:59.535Z,77.44
2018-02-14T02:54:59.482Z,77.15
2018-02-14T02:55:59.428Z,77.63
2018-02-14T02:56:59.374Z,77.34
2018-02-14T02:57:59.325Z,77.34
2018-02-14T02:58:59.266Z,77.34
2018-02-14T02:59:59.213Z,77.15
2018-02-14T03:00:59.159Z,77.25
2018-02-14T03:01:59.105Z,77.63
2018-02-14T03:02:59.052Z,77.72
2018-02-14T03:03:58.998Z,77.44
2018-02-14T03:04:58.943Z,77.44
2018-02-14T03:05:58.890Z,77.91
2018-02-14T03:06:58.836Z,77.72
2018-02-14T03:07:58.783Z,77.72
2018-02-14T03:08:58.728Z,78.01
2018-02-14T03:09:58.674Z,77.53
2018-02-14T03:10:58.620Z,77.72
2018-02-14T03:11:58.569Z,77.06
2018-02-14T03:12:58.511Z,77.25
2018-02-14T03:13:58.459Z,78.20
2018-02-14T03:14:58.405Z,77.82
2018-02-14T03:15:58.351Z,77.72
2018-02-14T03:16:58.299Z,77.91
2018-02-14T03:17:58.243Z,77.63
2018-02-14T03:18:58.189Z,78.20
2018-02-14T03:19:58.135Z,78.29
2018-02-14T03:20:58.081Z,77.91
2018-02-14T03:21:58.026Z,78.10
2018-02-14T03:22:57.973Z,77.91
2018-02-14T03:23:57.919Z,78.10
2018-02-14T03:24:57.864Z,78.01
2018-02-14T03:25:57.810Z,78.01
2018-02-14T03:26:57.757Z,78.20
2018-02-14T03:27:57.703Z,78.10
2018-02-14T03:28:57.693Z,78.58
2018-02-14T03:29:57.596Z,78.76
2018-02-14T03:30:57.541Z,78.58
2018-02-14T03:31:57.486Z,78.58
2018-02-14T03:32:57.434Z,78.48
2018-02-14T03:33:57.377Z,78.39
2018-02-14T03:34:57.324Z,78.58
2018-02-14T03:35:57.270Z,78.67
2018-02-14T03:36:57.214Z,78.86
2018-02-14T03:37:57.161Z,79.05
2018-02-14T03:38:57.106Z,78.67
2018-02-14T03:39:57.052Z,78.86
2018-02-14T03:40:56.997Z,79.24
2018-02-14T03:41:56.944Z,78.95
2018-02-14T03:42:56.898Z,79.14
2018-02-14T03:43:56.836Z,78.95
2018-02-14T03:44:56.781Z,78.95
2018-02-14T03:45:56.726Z,79.14
2018-02-14T03:46:56.673Z,79.14
2018-02-14T03:47:56.619Z,79.05
2018-02-14T03:48:56.564Z,79.14
2018-02-14T03:49:56.510Z,79.14
2018-02-14T03:50:56.456Z,79.14
2018-02-14T03:51:56.403Z,79.14
2018-02-14T03:52:56.348Z,78.95
2018-02-14T03:53:56.294Z,78.86
2018-02-14T03:54:56.240Z,78.95
2018-02-14T03:55:56.191Z,79.14
2018-02-14T03:56:56.132Z,79.14
2018-02-14T03:57:56.078Z,79.33
2018-02-14T03:58:56.025Z,79.14
2018-02-14T03:59:55.971Z,79.14
2018-02-14T04:00:55.916Z,79.05
2018-02-14T04:01:55.863Z,78.95
2018-02-14T04:02:55.809Z,78.95
2018-02-14T04:03:55.755Z,79.43
2018-02-14T04:04:55.701Z,79.05
2018-02-14T04:05:55.647Z,79.05
2018-02-14T04:06:55.593Z,79.05
2018-02-14T04:07:55.542Z,78.86
2018-02-14T04:08:55.485Z,78.95
2018-02-14T04:09:55.432Z,79.24
2018-02-14T04:10:55.378Z,79.33
2018-02-14T04:11:55.324Z,79.24
2018-02-14T04:12:55.270Z,79.24
2018-02-14T04:13:55.218Z,79.05
2018-02-14T04:14:55.162Z,79.05
2018-02-14T04:15:55.109Z,78.95
2018-02-14T04:16:55.056Z,79.14
2018-02-14T04:17:55.004Z,79.05
2018-02-14T04:18:54.947Z,79.05
2018-02-14T04:19:54.894Z,78.95
2018-02-14T04:20:54.838Z,79.33
2018-02-14T04:21:54.785Z,79.14
2018-02-14T04:22:54.732Z,79.05
2018-02-14T04:23:54.679Z,79.05
2018-02-14T04:24:54.623Z,79.24
2018-02-14T04:25:54.569Z,79.05
2018-02-14T04:26:54.516Z,79.14
2018-02-14T04:27:54.462Z,78.95
2018-02-14T04:28:54.415Z,78.95
2018-02-14T04:29:54.354Z,78.58
2018-02-14T04:30:54.300Z,79.14
2018-02-14T04:31:54.246Z,79.33
2018-02-14T04:32:54.192Z,79.14
2018-02-14T04:33:54.138Z,79.05
2018-02-14T04:34:54.083Z,79.33
2018-02-14T04:35:54.030Z,79.33
2018-02-14T04:36:53.975Z,79.24
2018-02-14T04:37:53.922Z,79.05
2018-02-14T04:38:53.867Z,79.61
2018-02-14T04:39:53.814Z,79.80
2018-02-14T04:40:53.759Z,79.52
2018-02-14T04:41:53.706Z,79.80
2018-02-14T04:42:53.652Z,79.80
2018-02-14T04:43:53.598Z,79.80
2018-02-14T04:44:53.550Z,79.43
2018-02-14T04:45:53.489Z,79.80
2018-02-14T04:46:53.436Z,79.33
2018-02-14T04:47:53.381Z,79.52
2018-02-14T04:48:53.326Z,79.33
2018-02-14T04:49:53.273Z,79.71
2018-02-14T04:50:53.219Z,79.71
2018-02-14T04:51:53.165Z,79.90
2018-02-14T04:52:53.110Z,79.90
2018-02-14T04:53:53.057Z,79.90
2018-02-14T04:54:53.003Z,79.99
2018-02-14T04:55:52.949Z,79.80
2018-02-14T04:56:52.894Z,79.80
2018-02-14T04:57:52.840Z,79.61
2018-02-14T04:58:52.786Z,79.99
2018-02-14T04:59:52.733Z,79.99
2018-02-14T05:00:52.678Z,80.18
2018-02-14T05:01:52.624Z,79.99
2018-02-14T05:02:52.571Z,80.27
2018-02-14T05:03:52.517Z,79.90
2018-02-14T05:04:52.471Z,79.99
2018-02-14T05:05:52.408Z,80.18
2018-02-14T05:06:52.354Z,80.37
2018-02-14T05:07:52.300Z,79.99
2018-02-14T05:08:52.246Z,79.80
2018-02-14T05:09:52.192Z,79.90
2018-02-14T05:10:52.170Z,79.90
2018-02-14T05:11:52.085Z,79.80
2018-02-14T05:12:52.030Z,79.90
2018-02-14T05:13:51.975Z,79.71
2018-02-14T05:14:51.922Z,79.90
2018-02-14T05:15:51.868Z,80.27
2018-02-14T05:16:51.813Z,80.27
2018-02-14T05:17:51.759Z,80.27
2018-02-14T05:18:51.738Z,80.37
2018-02-14T05:19:51.652Z,80.18
2018-02-14T05:20:51.647Z,80.18
2018-02-14T05:21:51.543Z,80.08
2018-02-14T05:22:51.489Z,80.27
2018-02-14T05:23:51.436Z,80.75
2018-02-14T05:24:51.380Z,80.37
2018-02-14T05:25:51.327Z,80.27
2018-02-14T05:26:51.273Z,80.46
2018-02-14T05:27:51.219Z,80.65
2018-02-14T05:28:51.166Z,80.27
2018-02-14T05:29:51.110Z,80.46
2018-02-14T05:30:51.107Z,80.46
2018-02-14T05:31:51.003Z,80.56
2018-02-14T05:32:50.948Z,80.27
2018-02-14T05:33:50.895Z,80.46
2018-02-14T05:34:50.847Z,80.46
2018-02-14T05:35:50.787Z,80.18
2018-02-14T05:36:50.732Z,80.27
2018-02-14T05:37:50.677Z,80.56
2018-02-14T05:38:50.624Z,80.75
2018-02-14T05:39:50.570Z,80.65
2018-02-14T05:40:50.515Z,80.65
2018-02-14T05:41:50.461Z,80.65
2018-02-14T05:42:50.407Z,80.56
2018-02-14T05:43:50.354Z,80.56
2018-02-14T05:44:50.299Z,80.56
2018-02-14T05:45:50.245Z,80.75
2018-02-14T05:46:50.191Z,81.22
2018-02-14T05:47:50.137Z,81.03
2018-02-14T05:48:50.083Z,81.22
2018-02-14T05:49:50.032Z,81.22
2018-02-14T05:50:49.981Z,81.22
2018-02-14T05:51:49.921Z,80.75
2018-02-14T05:52:49.866Z,81.03
2018-02-14T05:53:49.813Z,80.56
2018-02-14T05:54:49.758Z,81.51
2018-02-14T05:55:49.704Z,81.13
2018-02-14T05:56:49.650Z,81.03
2018-02-14T05:57:49.596Z,81.41
2018-02-14T05:58:49.542Z,81.41
2018-02-14T05:59:49.492Z,81.41
2018-02-14T06:00:49.436Z,81.32
2018-02-14T06:01:49.380Z,81.41
2018-02-14T06:02:49.325Z,81.32
2018-02-14T06:03:49.272Z,81.41
2018-02-14T06:04:49.217Z,81.32
2018-02-14T06:05:49.164Z,81.51
2018-02-14T06:06:49.109Z,81.51
2018-02-14T06:07:49.055Z,81.51
2018-02-14T06:08:49.000Z,81.41
2018-02-14T06:09:48.947Z,81.22
2018-02-14T06:10:48.892Z,81.22
2018-02-14T06:11:48.838Z,81.41
2018-02-14T06:12:48.782Z,81.51
2018-02-14T06:13:48.732Z,81.51
2018-02-14T06:14:48.677Z,81.70
2018-02-14T06:15:48.622Z,81.70
2018-02-14T06:16:48.567Z,81.79
2018-02-14T06:17:48.512Z,81.79
2018-02-14T06:18:48.459Z,81.70
2018-02-14T06:19:48.405Z,81.79
2018-02-14T06:20:48.350Z,81.70
2018-02-14T06:21:48.297Z,81.70
2018-02-14T06:22:48.243Z,81.70
2018-02-14T06:23:48.189Z,81.79
2018-02-14T06:24:48.133Z,81.79
2018-02-14T06:25:48.080Z,81.70
2018-02-14T06:26:48.026Z,81.88
2018-02-14T06:27:47.972Z,81.98
2018-02-14T06:28:47.917Z,81.70
2018-02-14T06:29:47.867Z,81.60
2018-02-14T06:30:47.810Z,81.79
2018-02-14T06:31:47.755Z,81.88
2018-02-14T06:32:47.703Z,81.70
2018-02-14T06:33:47.647Z,81.60
2018-02-14T06:34:47.593Z,81.88
2018-02-14T06:35:47.538Z,82.17
2018-02-14T06:36:47.484Z,82.17
2018-02-14T06:37:47.430Z,82.07
2018-02-14T06:38:47.376Z,81.60
2018-02-14T06:39:47.329Z,81.88
2018-02-14T06:40:47.268Z,81.51
2018-02-14T06:41:47.214Z,81.98
2018-02-14T06:42:47.160Z,81.70
2018-02-14T06:43:47.106Z,81.79
2018-02-14T06:44:47.052Z,81.88
2018-02-14T06:45:46.998Z,81.79
2018-02-14T06:46:46.944Z,81.98
2018-02-14T06:47:46.891Z,81.70
2018-02-14T06:48:46.836Z,81.88
2018-02-14T06:49:46.783Z,81.51
2018-02-14T06:50:46.729Z,81.79
2018-02-14T06:51:46.675Z,81.51
2018-02-14T06:52:46.621Z,81.22
2018-02-14T06:53:46.567Z,81.32
2018-02-14T06:54:46.515Z,81.32
2018-02-14T06:55:46.460Z,81.41
2018-02-14T06:56:46.406Z,81.60
2018-02-14T06:57:46.352Z,81.41
2018-02-14T06:58:46.298Z,81.32
2018-02-14T06:59:46.248Z,81.03
2018-02-14T07:00:46.190Z,81.32
2018-02-14T07:01:46.136Z,81.55
2018-02-14T07:02:46.085Z,81.07
2018-02-14T07:03:46.030Z,80.98
2018-02-14T07:04:45.979Z,81.03
2018-02-14T07:05:45.924Z,81.26
2018-02-14T07:06:45.870Z,80.88
2018-02-14T07:07:45.815Z,80.41
2018-02-14T07:08:45.761Z,80.69
2018-02-14T07:09:45.708Z,80.60
2018-02-14T07:10:45.654Z,80.32
2018-02-14T07:11:45.601Z,80.51
2018-02-14T07:12:45.548Z,80.32
2018-02-14T07:13:45.493Z,80.13
2018-02-14T07:14:45.491Z,79.69
2018-02-14T07:15:45.387Z,78.50
2018-02-14T07:16:45.333Z,78.03
2018-02-14T07:17:45.281Z,76.65
2018-02-14T07:18:45.228Z,75.55
2018-02-14T07:19:45.176Z,74.41
2018-02-14T07:20:45.122Z,73.12
2018-02-14T07:21:45.070Z,71.41
2018-02-14T07:22:45.018Z,70.84
2018-02-14T07:23:44.966Z,69.55
2018-02-14T07:24:44.914Z,68.92
2018-02-14T07:25:44.863Z,68.35
2018-02-14T07:26:44.812Z,67.34
2018-02-14T07:27:44.763Z,66.11
2018-02-14T07:28:44.710Z,65.73
2018-02-14T07:29:44.660Z,65.06
2018-02-14T07:30:44.615Z,64.21
2018-02-14T07:31:44.560Z,63.92
2018-02-14T07:32:44.509Z,62.97
2018-02-14T07:33:44.460Z,62.40
2018-02-14T07:34:44.409Z,61.87
2018-02-14T07:35:44.361Z,61.29
2018-02-14T07:36:44.311Z,60.82
2018-02-14T07:37:44.261Z,60.91
2018-02-14T07:38:44.214Z,59.96
2018-02-14T07:39:44.166Z,59.96
2018-02-14T07:40:44.212Z,59.68
2018-02-14T07:41:44.068Z,59.14
2018-02-14T07:42:44.020Z,58.76
2018-02-14T07:43:43.972Z,57.81
2018-02-14T07:44:43.923Z,57.93
2018-02-14T07:45:43.875Z,57.17
2018-02-14T07:46:43.827Z,56.79
2018-02-14T07:47:43.780Z,55.93
2018-02-14T07:48:43.732Z,55.58
2018-02-14T07:49:43.687Z,55.10
2018-02-14T07:50:43.639Z,55.49
2018-02-14T07:51:43.591Z,54.44
2018-02-14T07:52:43.543Z,53.96
2018-02-14T07:53:43.496Z,54.18
2018-02-14T07:54:43.449Z,53.61
2018-02-14T07:55:43.403Z,53.32
2018-02-14T07:56:43.357Z,53.06
2018-02-14T07:57:43.310Z,51.95
2018-02-14T07:58:43.264Z,51.28
2018-02-14T07:59:43.217Z,50.90
2018-02-14T08:00:43.172Z,49.66
2018-02-14T08:01:43.129Z,49.18
2018-02-14T08:02:43.081Z,48.99
2018-02-14T08:03:43.038Z,48.23
2018-02-14T08:04:42.990Z,47.94
2018-02-14T08:05:42.952Z,47.75
2018-02-14T08:06:42.902Z,48.04
2018-02-14T08:07:42.855Z,47.85
2018-02-14T08:08:42.810Z,47.28
2018-02-14T08:09:42.766Z,46.99
2018-02-14T08:10:42.722Z,46.61
2018-02-14T08:11:42.677Z,46.73
2018-02-14T08:12:42.639Z,47.02
2018-02-14T08:13:42.588Z,46.34
2018-02-14T08:14:42.546Z,45.99
2018-02-14T08:15:42.500Z,45.89
2018-02-14T08:16:42.456Z,45.70
2018-02-14T08:17:42.412Z,45.53
2018-02-14T08:18:42.368Z,44.87
2018-02-14T08:19:42.326Z,44.41
2018-02-14T08:20:42.282Z,43.65
2018-02-14T08:21:42.239Z,44.51
2018-02-14T08:22:42.195Z,43.95
2018-02-14T08:23:42.153Z,43.00
2018-02-14T08:24:42.110Z,43.29
2018-02-14T08:25:42.070Z,42.35
2018-02-14T08:26:42.025Z,42.25
2018-02-14T08:27:41.983Z,41.78
2018-02-14T08:28:41.940Z,41.68
2018-02-14T08:29:41.905Z,41.49
2018-02-14T08:30:41.856Z,41.13
2018-02-14T08:31:41.816Z,41.13
2018-02-14T08:32:41.776Z,40.95
2018-02-14T08:33:41.732Z,40.67
2018-02-14T08:34:41.691Z,40.00
2018-02-14T08:35:41.654Z,39.45
2018-02-14T08:36:41.608Z,39.35
2018-02-14T08:37:41.567Z,38.96
2018-02-14T08:38:41.527Z,38.59
2018-02-14T08:39:41.489Z,38.39
2018-02-14T08:40:41.444Z,38.59
2018-02-14T08:41:41.404Z,38.20
2018-02-14T08:42:41.367Z,37.92
2018-02-14T08:43:41.330Z,37.63
2018-02-14T08:44:41.335Z,37.15
2018-02-14T08:45:41.243Z,37.36
2018-02-14T08:46:41.204Z,36.98
2018-02-14T08:47:41.163Z,36.88
2018-02-14T08:48:41.124Z,37.07
2018-02-14T08:49:41.084Z,36.40
2018-02-14T08:50:41.044Z,36.49
2018-02-14T08:51:41.005Z,36.11
2018-02-14T08:52:40.965Z,36.32
2018-02-14T08:53:40.925Z,36.22
2018-02-14T08:54:40.886Z,35.65
2018-02-14T08:55:40.847Z,35.67
2018-02-14T08:56:40.807Z,35.28
2018-02-14T08:57:40.768Z,35.00
2018-02-14T08:58:40.728Z,34.61
2018-02-14T08:59:40.690Z,34.61
2018-02-14T09:00:40.650Z,34.59
2018-02-14T09:01:40.614Z,34.59
2018-02-14T09:02:40.574Z,34.61
2018-02-14T09:03:40.535Z,34.31
2018-02-14T09:04:40.496Z,34.50
2018-02-14T09:05:40.461Z,34.12
2018-02-14T09:06:40.419Z,33.73
2018-02-14T09:07:40.481Z,34.00
2018-02-14T09:08:40.344Z,34.10
2018-02-14T09:09:40.304Z,34.00
2018-02-14T09:10:40.264Z,34.20
2018-02-14T09:11:40.226Z,34.67
2018-02-14T09:12:40.185Z,34.48
2018-02-14T09:13:40.148Z,34.31
2018-02-14T09:14:40.109Z,34.12
2018-02-14T09:15:40.070Z,33.92
2018-02-14T09:16:40.029Z,33.92
2018-02-14T09:17:40.040Z,34.12
2018-02-14T09:18:39.952Z,33.62
2018-02-14T09:19:39.912Z,33.72
2018-02-14T09:20:39.871Z,33.81
2018-02-14T09:21:39.833Z,33.99
2018-02-14T09:22:39.794Z,34.28
2018-02-14T09:23:39.754Z,34.47
2018-02-14T09:24:39.713Z,34.45
2018-02-14T09:25:39.673Z,34.64
2018-02-14T09:26:39.633Z,34.55
2018-02-14T09:27:39.598Z,34.16
2018-02-14T09:28:39.551Z,34.45
2018-02-14T09:29:39.510Z,34.45
2018-02-14T09:30:39.471Z,34.56
2018-02-14T09:31:39.431Z,34.37
2018-02-14T09:32:39.390Z,33.99
2018-02-14T09:33:39.349Z,33.89
2018-02-14T09:34:39.308Z,34.06
2018-02-14T09:35:39.267Z,34.43
2018-02-14T09:36:39.226Z,34.34
2018-02-14T09:37:39.185Z,35.10
2018-02-14T09:38:39.143Z,35.66
2018-02-14T09:39:39.103Z,35.93
2018-02-14T09:40:39.061Z,36.58
2018-02-14T09:41:39.022Z,37.23
2018-02-14T09:42:38.979Z,38.17
2018-02-14T09:43:38.938Z,39.10
2018-02-14T09:44:38.896Z,40.03
2018-02-14T09:45:38.855Z,40.99
2018-02-14T09:46:38.813Z,41.72
2018-02-14T09:47:38.770Z,43.04
2018-02-14T09:48:38.726Z,43.61
2018-02-14T09:49:38.685Z,44.18
2018-02-14T09:50:38.643Z,44.54
2018-02-14T09:51:38.600Z,44.73
2018-02-14T09:52:38.556Z,45.49
2018-02-14T09:53:38.511Z,45.68
2018-02-14T09:54:38.469Z,45.78
2018-02-14T09:55:38.425Z,45.78
2018-02-14T09:56:38.380Z,46.35
2018-02-14T09:57:38.336Z,46.25
2018-02-14T09:58:38.292Z,46.63
2018-02-14T09:59:38.252Z,46.15
2018-02-14T10:00:38.246Z,47.02
2018-02-14T10:01:38.157Z,46.73
2018-02-14T10:02:38.113Z,47.11
2018-02-14T10:03:38.068Z,47.37
2018-02-14T10:04:38.022Z,48.13
2018-02-14T10:05:37.975Z,47.66
2018-02-14T10:06:37.969Z,47.85
2018-02-14T10:07:37.887Z,47.85
2018-02-14T10:08:37.839Z,48.32
2018-02-14T10:09:37.794Z,48.23
2018-02-14T10:10:37.750Z,48.23
2018-02-14T10:11:37.702Z,48.51
2018-02-14T10:12:37.656Z,49.18
2018-02-14T10:13:37.610Z,49.08
2018-02-14T10:14:37.568Z,49.54
2018-02-14T10:15:37.518Z,49.44
2018-02-14T10:16:37.470Z,49.82
2018-02-14T10:17:37.424Z,49.82
2018-02-14T10:18:37.381Z,50.20
2018-02-14T10:19:37.331Z,49.73
2018-02-14T10:20:37.284Z,50.96
2018-02-14T10:21:37.237Z,50.68
2018-02-14T10:22:37.192Z,50.87
2018-02-14T10:23:37.147Z,50.58
2018-02-14T10:24:37.095Z,51.15
2018-02-14T10:25:37.048Z,50.84
2018-02-14T10:26:37.053Z,50.93
2018-02-14T10:27:36.955Z,51.89
2018-02-14T10:28:36.908Z,51.70
2018-02-14T10:29:36.860Z,52.45
2018-02-14T10:30:36.813Z,52.93
2018-02-14T10:31:36.766Z,52.91
2018-02-14T10:32:36.730Z,53.19
2018-02-14T10:33:36.668Z,54.05
2018-02-14T10:34:36.625Z,53.76
2018-02-14T10:35:36.574Z,54.14
2018-02-14T10:36:36.526Z,54.33
2018-02-14T10:37:36.482Z,54.71
2018-02-14T10:38:36.429Z,54.90
2018-02-14T10:39:36.382Z,54.99
2018-02-14T10:40:36.333Z,55.37
2018-02-14T10:41:36.284Z,55.09
2018-02-14T10:42:36.237Z,55.47
2018-02-14T10:43:36.188Z,55.09
2018-02-14T10:44:36.137Z,55.18
2018-02-14T10:45:36.090Z,55.57
2018-02-14T10:46:36.045Z,55.57
2018-02-14T10:47:35.992Z,55.57
2018-02-14T10:48:35.945Z,55.94
2018-02-14T10:49:35.896Z,55.91
2018-02-14T10:50:35.848Z,56.10
2018-02-14T10:51:35.799Z,56.01
2018-02-14T10:52:35.751Z,56.01
2018-02-14T10:53:35.701Z,56.29
2018-02-14T10:54:35.651Z,56.32
2018-02-14T10:55:35.607Z,56.04
2018-02-14T10:56:35.558Z,55.82
2018-02-14T10:57:35.506Z,55.85
2018-02-14T10:58:35.457Z,56.04
2018-02-14T10:59:35.408Z,56.32
2018-02-14T11:00:35.363Z,55.85
2018-02-14T11:01:35.312Z,56.04
2018-02-14T11:02:35.262Z,56.23
2018-02-14T11:03:35.214Z,56.04
2018-02-14T11:04:35.164Z,55.94
2018-02-14T11:05:35.116Z,56.13
2018-02-14T11:06:35.068Z,56.51
2018-02-14T11:07:35.019Z,56.70
2018-02-14T11:08:34.968Z,56.80
2018-02-14T11:09:34.921Z,56.61
2018-02-14T11:10:34.873Z,56.70
2018-02-14T11:11:34.826Z,56.80
2018-02-14T11:12:34.783Z,56.96
2018-02-14T11:13:34.726Z,56.70
2018-02-14T11:14:34.677Z,56.99
2018-02-14T11:15:34.629Z,57.28
2018-02-14T11:16:34.579Z,56.80
2018-02-14T11:17:34.530Z,56.61
2018-02-14T11:18:34.483Z,57.09
2018-02-14T11:19:34.434Z,57.09
2018-02-14T11:20:34.384Z,56.89
2018-02-14T11:21:34.336Z,56.80
2018-02-14T11:22:34.290Z,56.80
2018-02-14T11:23:34.238Z,56.89
2018-02-14T11:24:34.190Z,56.61
2018-02-14T11:25:34.141Z,57.28
2018-02-14T11:26:34.093Z,57.18
2018-02-14T11:27:34.045Z,57.09
2018-02-14T11:28:33.995Z,56.80
2018-02-14T11:29:33.946Z,56.61
2018-02-14T11:30:33.901Z,56.80
2018-02-14T11:31:33.852Z,57.18
2018-02-14T11:32:33.801Z,56.89
2018-02-14T11:33:33.753Z,56.13
2018-02-14T11:34:33.754Z,56.42
2018-02-14T11:35:33.656Z,56.23
2018-02-14T11:36:33.608Z,56.32
2018-02-14T11:37:33.558Z,56.29
2018-02-14T11:38:33.509Z,56.39
2018-02-14T11:39:33.463Z,56.77
2018-02-14T11:40:33.412Z,56.77
2018-02-14T11:41:33.393Z,56.58
2018-02-14T11:42:33.316Z,56.68
2018-02-14T11:43:33.266Z,57.15
2018-02-14T11:44:33.217Z,56.96
2018-02-14T11:45:33.168Z,56.77
2018-02-14T11:46:33.120Z,56.87
2018-02-14T11:47:33.070Z,57.06
2018-02-14T11:48:33.023Z,57.06
2018-02-14T11:49:32.975Z,56.77
2018-02-14T11:50:32.924Z,56.68
2018-02-14T11:51:32.874Z,56.77
2018-02-14T11:52:32.824Z,56.87
2018-02-14T11:53:32.777Z,56.87
2018-02-14T11:54:32.727Z,56.77
2018-02-14T11:55:32.704Z,56.68
2018-02-14T11:56:32.678Z,56.68
2018-02-14T11:57:32.582Z,56.77
2018-02-14T11:58:32.532Z,56.96
2018-02-14T11:59:32.484Z,56.68
2018-02-14T12:00:32.434Z,56.77
2018-02-14T12:01:32.389Z,56.77
2018-02-14T12:02:32.336Z,56.77
2018-02-14T12:03:32.287Z,56.87
2018-02-14T12:04:32.238Z,56.68
2018-02-14T12:05:32.192Z,56.77
2018-02-14T12:06:32.140Z,56.77
2018-02-14T12:07:32.092Z,56.58
2018-02-14T12:08:32.142Z,56.87
2018-02-14T12:09:31.993Z,56.87
2018-02-14T12:10:31.944Z,56.96
2018-02-14T12:11:31.895Z,56.58
2018-02-14T12:12:31.851Z,56.58
2018-02-14T12:13:31.796Z,56.49
2018-02-14T12:14:31.747Z,56.87
2018-02-14T12:15:31.698Z,56.77
2018-02-14T12:16:31.648Z,56.49
2018-02-14T12:17:31.600Z,56.10
2018-02-14T12:18:31.552Z,56.01
2018-02-14T12:19:31.503Z,56.10
2018-02-14T12:20:31.457Z,55.73
2018-02-14T12:21:31.405Z,56.20
2018-02-14T12:22:31.355Z,55.82
2018-02-14T12:23:31.307Z,56.01
2018-02-14T12:24:31.257Z,55.63
2018-02-14T12:25:31.207Z,56.20
2018-02-14T12:26:31.160Z,56.01
2018-02-14T12:27:31.112Z,55.91
2018-02-14T12:28:31.065Z,55.44
2018-02-14T12:29:31.016Z,55.37
2018-02-14T12:30:30.964Z,55.09
2018-02-14T12:31:30.915Z,55.09
2018-02-14T12:32:30.866Z,54.99
2018-02-14T12:33:30.817Z,54.45
2018-02-14T12:34:30.769Z,54.45
2018-02-14T12:35:30.725Z,53.97
2018-02-14T12:36:30.672Z,53.50
2018-02-14T12:37:30.623Z,53.05
2018-02-14T12:38:30.575Z,52.96
2018-02-14T12:39:30.527Z,52.20
2018-02-14T12:40:30.477Z,51.15
2018-02-14T12:41:30.431Z,51.06
2018-02-14T12:42:30.382Z,50.58
2018-02-14T12:43:30.334Z,50.87
2018-02-14T12:44:30.286Z,50.39
2018-02-14T12:45:30.238Z,50.10
2018-02-14T12:46:30.190Z,50.32
2018-02-14T12:47:30.142Z,50.04
2018-02-14T12:48:30.094Z,49.94
2018-02-14T12:49:30.047Z,49.46
2018-02-14T12:50:29.999Z,49.46
2018-02-14T12:51:29.952Z,49.46